createdAt,value
2023-04-26T00:01:29.252Z,1.67
2023-04-26T00:03:56.686Z,1.50
2023-04-26T00:06:23.501Z,1.40
2023-04-26T00:08:50.233Z,1.70
2023-04-26T00:11:16.880Z,1.40
2023-04-26T00:13:43.542Z,1.80
2023-04-26T00:16:10.168Z,1.50
2023-04-26T00:18:37.322Z,1.80
2023-04-26T00:21:04.059Z,1.50
2023-04-26T00:23:30.856Z,1.83
2023-04-26T00:25:57.540Z,1.85
2023-04-26T00:28:24.069Z,1.88
2023-04-26T00:30:51.283Z,1.73
2023-04-26T00:33:17.820Z,1.67
2023-04-26T00:35:44.426Z,1.80
2023-04-26T00:38:11.162Z,1.70
2023-04-26T00:40:37.717Z,1.50
2023-04-26T00:43:05.788Z,1.48
2023-04-26T00:45:32.521Z,1.77
2023-04-26T00:48:01.377Z,1.38
2023-04-26T00:50:28.198Z,1.50
2023-04-26T00:52:56.682Z,1.60
2023-04-26T00:55:23.868Z,1.30
2023-04-26T00:57:50.561Z,1.63
2023-04-26T01:00:17.236Z,1.60
2023-04-26T01:02:44.500Z,1.55
2023-04-26T01:05:11.281Z,1.83
2023-04-26T01:07:38.938Z,1.48
2023-04-26T01:10:06.284Z,1.73
2023-04-26T01:12:33.270Z,1.80
2023-04-26T01:15:00.671Z,1.70
2023-04-26T01:17:27.199Z,2.00
2023-04-26T01:19:53.858Z,1.90
2023-04-26T01:22:21.201Z,1.90
2023-04-26T01:24:51.180Z,1.52
2023-04-26T01:27:18.090Z,1.58
2023-04-26T01:29:46.201Z,2.33
2023-04-26T01:32:12.912Z,1.88
2023-04-26T01:34:39.445Z,1.40
2023-04-26T01:37:07.922Z,1.48
2023-04-26T01:39:36.630Z,1.60
2023-04-26T01:42:04.769Z,1.50
2023-04-26T01:44:31.859Z,1.48
2023-04-26T01:46:58.362Z,1.90
2023-04-26T01:49:24.896Z,1.85
2023-04-26T01:51:51.758Z,1.80
2023-04-26T01:54:18.249Z,1.50
2023-04-26T01:56:44.832Z,1.38
2023-04-26T01:59:11.753Z,1.92
2023-04-26T02:01:38.417Z,1.50
2023-04-26T02:04:06.434Z,1.65
2023-04-26T02:06:36.544Z,1.65
2023-04-26T02:09:03.672Z,1.88
2023-04-26T02:11:30.547Z,1.58
2023-04-26T02:13:57.242Z,2.08
2023-04-26T02:16:24.049Z,1.80
2023-04-26T02:18:51.013Z,1.50
2023-04-26T02:21:20.826Z,1.38
2023-04-26T02:23:47.585Z,1.52
2023-04-26T02:26:14.647Z,2.00
2023-04-26T02:28:41.951Z,1.50
2023-04-26T02:31:08.561Z,1.60
2023-04-26T02:33:35.135Z,1.80
2023-04-26T02:36:06.280Z,1.75
2023-04-26T02:38:35.293Z,1.90
2023-04-26T02:41:03.229Z,1.33
2023-04-26T02:43:29.968Z,1.65
2023-04-26T02:45:58.750Z,2.05
2023-04-26T02:48:25.406Z,1.73
2023-04-26T02:50:52.472Z,1.83
2023-04-26T02:53:19.012Z,1.90
2023-04-26T02:55:46.160Z,1.70
2023-04-26T02:58:13.182Z,1.70
2023-04-26T03:00:45.104Z,1.90
2023-04-26T03:03:13.070Z,1.45
2023-04-26T03:05:39.887Z,1.58
2023-04-26T03:08:07.171Z,2.00
2023-04-26T03:10:36.443Z,1.65
2023-04-26T03:13:04.507Z,1.80
2023-04-26T03:15:31.102Z,1.60
2023-04-26T03:17:58.231Z,1.25
2023-04-26T03:20:25.583Z,1.42
2023-04-26T03:22:52.118Z,1.55
2023-04-26T03:25:18.848Z,1.65
2023-04-26T03:27:45.612Z,1.58
2023-04-26T03:30:13.419Z,1.70
2023-04-26T03:32:40.018Z,1.60
2023-04-26T03:35:06.848Z,1.85
2023-04-26T03:37:33.334Z,1.80
2023-04-26T03:39:59.840Z,1.48
2023-04-26T03:42:26.406Z,2.05
2023-04-26T03:44:52.933Z,1.67
2023-04-26T03:47:19.491Z,1.98
2023-04-26T03:49:46.009Z,1.80
2023-04-26T03:52:12.524Z,1.70
2023-04-26T03:54:39.129Z,1.75
2023-04-26T03:57:06.081Z,1.45
2023-04-26T03:59:32.855Z,1.92
2023-04-26T04:01:59.438Z,1.83
2023-04-26T04:04:26.060Z,1.42
2023-04-26T04:06:52.838Z,1.65
2023-04-26T04:09:19.388Z,1.80
2023-04-26T04:11:47.575Z,2.00
2023-04-26T04:14:14.241Z,1.65
2023-04-26T04:16:40.819Z,2.17
2023-04-26T04:19:07.633Z,1.80
2023-04-26T04:21:34.420Z,2.13
2023-04-26T04:24:01.304Z,1.80
2023-04-26T04:26:30.404Z,2.15
2023-04-26T04:28:57.600Z,1.67
2023-04-26T04:31:24.781Z,2.08
2023-04-26T04:33:51.313Z,2.22
2023-04-26T04:36:17.844Z,2.33
2023-04-26T04:38:45.187Z,2.20
2023-04-26T04:41:12.276Z,2.15
2023-04-26T04:43:38.843Z,2.35
2023-04-26T04:46:05.462Z,2.28
2023-04-26T04:48:33.555Z,2.45
2023-04-26T04:51:00.064Z,2.20
2023-04-26T04:53:27.042Z,2.35
2023-04-26T04:55:53.568Z,2.10
2023-04-26T04:58:20.159Z,2.25
2023-04-26T05:00:47.058Z,1.92
2023-04-26T05:03:15.153Z,2.00
2023-04-26T05:05:41.893Z,2.22
2023-04-26T05:08:08.949Z,2.47
2023-04-26T05:10:36.187Z,2.50
2023-04-26T05:13:02.969Z,2.42
2023-04-26T05:15:29.799Z,2.70
2023-04-26T05:17:56.538Z,2.40
2023-04-26T05:20:23.156Z,2.65
2023-04-26T05:22:49.795Z,3.05
2023-04-26T05:25:17.316Z,2.95
2023-04-26T05:27:45.614Z,2.80
2023-04-26T05:30:12.958Z,3.08
2023-04-26T05:32:39.488Z,3.20
2023-04-26T05:35:06.254Z,2.78
2023-04-26T05:37:32.801Z,3.10
2023-04-26T05:39:59.398Z,2.92
2023-04-26T05:42:26.168Z,3.05
2023-04-26T05:44:58.086Z,3.00
2023-04-26T05:47:24.808Z,3.70
2023-04-26T05:49:51.298Z,3.13
2023-04-26T05:52:17.827Z,3.45
2023-04-26T05:54:51.224Z,3.53
2023-04-26T05:57:18.949Z,3.35
2023-04-26T05:59:55.717Z,4.20
2023-04-26T06:02:22.461Z,4.10
2023-04-26T06:04:50.030Z,3.80
2023-04-26T06:07:23.792Z,3.83
2023-04-26T06:09:52.377Z,4.50
2023-04-26T06:12:18.980Z,4.22
2023-04-26T06:14:45.582Z,4.53
2023-04-26T06:17:12.160Z,4.65
2023-04-26T06:19:38.686Z,4.43
2023-04-26T06:22:05.477Z,4.47
2023-04-26T06:24:32.041Z,5.03
2023-04-26T06:26:58.629Z,4.05
2023-04-26T06:29:25.463Z,4.43
2023-04-26T06:31:52.063Z,5.07
2023-04-26T06:34:18.549Z,5.53
2023-04-26T06:36:46.480Z,5.03
2023-04-26T06:39:13.019Z,4.65
2023-04-26T06:41:39.825Z,4.72
2023-04-26T06:44:06.463Z,5.32
2023-04-26T06:46:33.341Z,5.80
2023-04-26T06:49:01.638Z,10.48
2023-04-26T06:51:29.405Z,7.10
2023-04-26T06:53:59.075Z,5.28
2023-04-26T06:56:25.645Z,5.03
2023-04-26T06:59:05.482Z,6.22
2023-04-26T07:01:34.135Z,6.55
2023-04-26T07:04:03.861Z,6.90
2023-04-26T07:06:31.471Z,6.63
2023-04-26T07:09:02.834Z,6.15
2023-04-26T07:11:30.013Z,6.45
2023-04-26T07:13:57.099Z,5.78
2023-04-26T07:16:23.825Z,6.18
2023-04-26T07:18:51.261Z,6.72
2023-04-26T07:21:17.849Z,5.65
2023-04-26T07:23:44.682Z,6.45
2023-04-26T07:26:12.018Z,5.63
2023-04-26T07:28:38.507Z,5.93
2023-04-26T07:31:07.856Z,5.80
2023-04-26T07:33:35.726Z,5.25
2023-04-26T07:36:02.297Z,5.30
2023-04-26T07:38:28.856Z,5.30
2023-04-26T07:40:55.593Z,6.40
2023-04-26T07:43:23.138Z,5.60
2023-04-26T07:45:49.794Z,5.80
2023-04-26T07:48:17.058Z,5.10
2023-04-26T07:50:43.669Z,4.75
2023-04-26T07:53:10.224Z,4.28
2023-04-26T07:55:37.617Z,3.42
2023-04-26T07:58:04.504Z,3.70
2023-04-26T08:00:31.509Z,4.03
2023-04-26T08:02:58.417Z,4.30
2023-04-26T08:05:25.583Z,3.72
2023-04-26T08:07:52.306Z,3.10
2023-04-26T08:10:19.065Z,3.38
2023-04-26T08:12:45.754Z,3.03
2023-04-26T08:15:12.564Z,2.80
2023-04-26T08:17:39.171Z,2.65
2023-04-26T08:20:07.012Z,3.00
2023-04-26T08:22:33.505Z,3.55
2023-04-26T08:25:00.263Z,5.40
2023-04-26T08:27:28.325Z,3.85
2023-04-26T08:29:54.894Z,4.38
2023-04-26T08:32:22.015Z,3.92
2023-04-26T08:34:48.825Z,3.75
2023-04-26T08:37:15.404Z,3.67
2023-04-26T08:39:41.879Z,3.50
2023-04-26T08:42:16.337Z,3.80
2023-04-26T08:44:44.709Z,3.92
2023-04-26T08:47:22.599Z,3.70
2023-04-26T08:49:59.503Z,3.78
2023-04-26T08:52:32.019Z,3.08
2023-04-26T08:54:59.657Z,3.50
2023-04-26T08:57:26.791Z,3.63
2023-04-26T08:59:56.214Z,3.33
2023-04-26T09:02:24.122Z,3.10
2023-04-26T09:04:51.910Z,2.92
2023-04-26T09:07:30.912Z,3.38
2023-04-26T09:09:58.938Z,3.03
2023-04-26T09:12:25.780Z,2.88
2023-04-26T09:14:53.156Z,3.03
2023-04-26T09:17:27.552Z,3.13
2023-04-26T09:19:54.383Z,2.60
2023-04-26T09:22:33.016Z,2.60
2023-04-26T09:25:00.318Z,2.78
2023-04-26T09:27:38.545Z,2.38
2023-04-26T09:30:09.421Z,2.88
2023-04-26T09:32:47.710Z,2.85
2023-04-26T09:35:31.592Z,2.55
2023-04-26T09:38:11.716Z,3.20
2023-04-26T09:40:50.164Z,3.22
2023-04-26T09:43:21.524Z,2.38
2023-04-26T09:45:51.246Z,2.05
2023-04-26T09:48:22.925Z,2.75
2023-04-26T09:50:52.547Z,2.45
2023-04-26T09:53:28.721Z,2.05
2023-04-26T09:55:56.273Z,2.30
2023-04-26T09:58:25.847Z,2.05
2023-04-26T10:00:52.933Z,2.17
2023-04-26T10:03:23.203Z,1.88
2023-04-26T10:05:50.533Z,2.10
2023-04-26T10:08:17.262Z,2.10
2023-04-26T10:10:45.916Z,2.20
2023-04-26T10:13:13.070Z,2.22
2023-04-26T10:15:41.204Z,2.38
2023-04-26T10:18:08.726Z,2.03
2023-04-26T10:20:40.811Z,1.65
2023-04-26T10:23:15.481Z,1.85
2023-04-26T10:25:43.785Z,1.85
2023-04-26T10:28:10.370Z,1.95
2023-04-26T10:30:55.433Z,1.60
2023-04-26T10:33:23.574Z,2.40
2023-04-26T10:36:21.137Z,1.83
2023-04-26T10:39:16.237Z,1.63
2023-04-26T10:41:42.854Z,1.70
2023-04-26T10:44:37.766Z,1.67
2023-04-26T10:47:06.692Z,1.40
2023-04-26T10:49:45.898Z,1.50
2023-04-26T10:52:15.901Z,1.60
2023-04-26T10:54:45.805Z,1.75
2023-04-26T10:57:12.703Z,1.80
2023-04-26T10:59:51.279Z,2.00
2023-04-26T11:02:48.307Z,1.58
2023-04-26T11:05:37.935Z,1.83
2023-04-26T11:08:15.696Z,2.00
2023-04-26T11:10:43.093Z,1.88
2023-04-26T11:13:09.736Z,1.42
2023-04-26T11:15:36.636Z,1.83
2023-04-26T11:18:04.952Z,1.83
2023-04-26T11:20:34.695Z,1.55
2023-04-26T11:23:02.022Z,1.90
2023-04-26T11:25:29.708Z,1.65
2023-04-26T11:28:02.861Z,1.38
2023-04-26T11:30:33.316Z,1.73
2023-04-26T11:33:03.837Z,1.77
2023-04-26T11:35:34.791Z,1.90
2023-04-26T11:38:05.463Z,1.65
2023-04-26T11:40:33.431Z,1.63
2023-04-26T11:43:07.472Z,1.73
2023-04-26T11:45:36.050Z,1.63
2023-04-26T11:50:36.686Z,1.70
2023-04-26T11:53:06.043Z,1.70
2023-04-26T11:55:36.837Z,1.77
2023-04-26T11:58:11.494Z,1.45
2023-04-26T12:03:11.014Z,1.58
2023-04-26T12:05:38.420Z,1.80
2023-04-26T12:08:05.351Z,1.77
2023-04-26T12:10:35.894Z,1.90
2023-04-26T12:13:02.579Z,1.77
2023-04-26T12:15:31.357Z,1.80
2023-04-26T12:18:06.976Z,1.73
2023-04-26T12:20:35.862Z,2.03
2023-04-26T12:23:07.597Z,2.00
2023-04-26T12:25:35.987Z,1.48
2023-04-26T12:28:04.809Z,1.73
2023-04-26T12:30:31.764Z,2.20
2023-04-26T12:33:09.117Z,1.60
2023-04-26T12:35:42.864Z,2.60
2023-04-26T12:38:09.690Z,1.73
2023-04-26T12:40:36.827Z,1.65
2023-04-26T12:43:03.487Z,1.60
2023-04-26T12:45:30.054Z,1.88
2023-04-26T12:47:56.655Z,1.98
2023-04-26T12:50:23.344Z,1.98
2023-04-26T12:52:49.964Z,1.65
2023-04-26T12:55:16.819Z,1.50
2023-04-26T12:57:45.022Z,2.17
2023-04-26T13:00:14.092Z,1.65
2023-04-26T13:02:41.684Z,1.90
2023-04-26T13:05:09.640Z,2.00
2023-04-26T13:07:40.637Z,2.10
2023-04-26T13:10:09.205Z,2.13
2023-04-26T13:12:39.576Z,2.42
2023-04-26T13:15:08.127Z,2.15
2023-04-26T13:20:02.156Z,1.90
2023-04-26T13:22:28.648Z,2.33
2023-04-26T13:24:55.328Z,2.20
2023-04-26T13:27:21.911Z,1.77
2023-04-26T13:29:48.438Z,3.58
2023-04-26T13:32:15.030Z,3.10
2023-04-26T13:34:41.535Z,2.17
2023-04-26T13:37:10.385Z,2.22
2023-04-26T13:39:36.887Z,1.92
2023-04-26T13:42:05.721Z,2.20
2023-04-26T13:44:32.314Z,2.20
2023-04-26T13:47:00.080Z,1.83
2023-04-26T13:49:26.798Z,2.00
2023-04-26T13:51:53.803Z,1.67
2023-04-26T13:54:25.880Z,1.90
2023-04-26T13:56:53.538Z,2.03
2023-04-26T13:59:20.536Z,2.20
2023-04-26T14:01:47.099Z,3.42
2023-04-26T14:04:13.785Z,2.33
2023-04-26T14:06:40.659Z,2.50
2023-04-26T14:09:07.217Z,2.10
2023-04-26T14:11:33.795Z,2.08
2023-04-26T14:14:00.847Z,2.20
2023-04-26T14:16:27.466Z,2.10
2023-04-26T14:18:54.042Z,2.17
2023-04-26T14:21:20.683Z,1.92
2023-04-26T14:23:47.237Z,2.17
2023-04-26T14:26:14.024Z,2.05
2023-04-26T14:28:41.210Z,2.20
2023-04-26T14:31:08.397Z,1.95
2023-04-26T14:33:35.499Z,1.95
2023-04-26T14:36:02.168Z,2.65
2023-04-26T14:38:28.700Z,1.90
2023-04-26T14:40:55.299Z,2.28
2023-04-26T14:43:22.032Z,2.10
2023-04-26T14:45:48.698Z,2.20
2023-04-26T14:48:15.391Z,2.20
2023-04-26T14:50:42.340Z,2.60
2023-04-26T14:53:09.869Z,2.40
2023-04-26T14:55:36.565Z,2.22
2023-04-26T14:58:03.205Z,1.75
2023-04-26T15:00:30.755Z,1.85
2023-04-26T15:02:57.436Z,2.00
2023-04-26T15:05:24.440Z,1.80
2023-04-26T15:07:51.913Z,2.20
2023-04-26T15:10:18.616Z,2.08
2023-04-26T15:12:45.944Z,1.90
2023-04-26T15:15:12.548Z,2.13
2023-04-26T15:17:39.211Z,1.80
2023-04-26T15:20:06.630Z,1.90
2023-04-26T15:22:35.722Z,1.70
2023-04-26T15:25:04.044Z,2.05
2023-04-26T15:27:30.597Z,2.10
2023-04-26T15:29:57.355Z,1.90
2023-04-26T15:32:23.937Z,2.20
2023-04-26T15:34:50.525Z,2.03
2023-04-26T15:37:17.192Z,2.03
2023-04-26T15:39:44.035Z,1.88
2023-04-26T15:42:11.181Z,2.22
2023-04-26T15:44:37.782Z,2.03
2023-04-26T15:47:04.476Z,2.35
2023-04-26T15:49:31.087Z,1.90
2023-04-26T15:51:57.902Z,2.25
2023-04-26T15:54:24.529Z,2.00
2023-04-26T15:56:51.144Z,2.28
2023-04-26T15:59:17.679Z,1.90
2023-04-26T16:01:44.233Z,2.20
2023-04-26T16:04:11.685Z,2.00
2023-04-26T16:06:38.416Z,1.70
2023-04-26T16:09:24.000Z,2.35
2023-04-26T16:11:51.609Z,2.53
2023-04-26T16:14:18.322Z,2.47
2023-04-26T16:16:46.018Z,2.45
2023-04-26T16:19:12.887Z,2.30
2023-04-26T16:21:40.737Z,2.83
2023-04-26T16:24:09.403Z,2.15
2023-04-26T16:29:04.261Z,2.20
2023-04-26T16:31:32.011Z,2.20
2023-04-26T16:33:58.971Z,2.10
2023-04-26T16:36:27.290Z,2.63
2023-04-26T16:38:54.536Z,2.60
2023-04-26T16:41:21.185Z,2.30
2023-04-26T16:43:47.819Z,2.60
2023-04-26T16:46:14.495Z,2.33
2023-04-26T16:48:41.516Z,2.42
2023-04-26T16:51:08.185Z,2.10
2023-04-26T16:53:35.219Z,2.20
2023-04-26T16:56:01.928Z,1.92
2023-04-26T16:58:28.684Z,2.38
2023-04-26T17:00:55.357Z,2.25
2023-04-26T17:03:23.937Z,2.33
2023-04-26T17:08:18.538Z,2.30
2023-04-26T17:10:46.248Z,2.10
2023-04-26T17:13:13.666Z,2.00
2023-04-26T17:15:41.215Z,2.28
2023-04-26T17:18:08.845Z,2.45
2023-04-26T17:20:35.567Z,2.90
2023-04-26T17:23:04.225Z,2.17
2023-04-26T17:25:31.328Z,2.60
2023-04-26T17:27:58.393Z,2.55
2023-04-26T17:30:25.411Z,2.45
2023-04-26T17:32:52.017Z,2.40
2023-04-26T17:35:18.655Z,2.50
2023-04-26T17:37:50.222Z,2.42
2023-04-26T17:40:18.224Z,2.00
2023-04-26T17:42:45.879Z,2.10
2023-04-26T17:45:14.110Z,2.50
2023-04-26T17:47:42.834Z,2.67
2023-04-26T17:50:09.774Z,2.65
2023-04-26T17:52:37.072Z,2.25
2023-04-26T17:55:10.017Z,2.20
2023-04-26T17:57:37.350Z,2.60
2023-04-26T18:00:06.607Z,2.90
2023-04-26T18:02:33.555Z,2.60
2023-04-26T18:05:00.412Z,2.33
2023-04-26T18:07:27.144Z,2.30
2023-04-26T18:09:53.719Z,2.40
2023-04-26T18:12:20.464Z,2.60
2023-04-26T18:14:47.061Z,2.40
2023-04-26T18:17:15.246Z,2.33
2023-04-26T18:19:42.702Z,2.30
2023-04-26T18:22:09.716Z,2.50
2023-04-26T18:24:36.290Z,2.92
2023-04-26T18:27:03.233Z,2.33
2023-04-26T18:29:30.197Z,2.90
2023-04-26T18:31:56.965Z,3.03
2023-04-26T18:34:23.792Z,2.45
2023-04-26T18:36:50.305Z,2.45
2023-04-26T18:39:16.924Z,2.60
2023-04-26T18:41:43.503Z,2.42
2023-04-26T18:44:15.628Z,2.58
2023-04-26T18:46:43.162Z,3.22
2023-04-26T18:49:09.993Z,2.63
2023-04-26T18:51:36.708Z,2.53
2023-04-26T18:54:03.441Z,3.00
2023-04-26T18:56:31.501Z,2.47
2023-04-26T18:58:58.146Z,2.60
2023-04-26T19:01:24.777Z,2.63
2023-04-26T19:03:51.603Z,2.75
2023-04-26T19:06:18.524Z,3.08
2023-04-26T19:08:45.395Z,2.85
2023-04-26T19:11:12.446Z,2.65
2023-04-26T19:13:40.234Z,3.10
2023-04-26T19:16:08.183Z,2.50
2023-04-26T19:18:40.453Z,2.40
2023-04-26T19:21:08.249Z,2.70
2023-04-26T19:23:35.212Z,2.60
2023-04-26T19:26:09.844Z,2.53
2023-04-26T19:28:37.944Z,2.78
2023-04-26T19:31:04.755Z,2.95
2023-04-26T19:33:32.451Z,2.80
2023-04-26T19:35:59.041Z,2.45
2023-04-26T19:38:25.926Z,2.67
2023-04-26T19:40:53.117Z,3.53
2023-04-26T19:43:20.211Z,2.75
2023-04-26T19:45:46.820Z,3.20
2023-04-26T19:48:13.803Z,2.60
2023-04-26T19:50:45.438Z,3.15
2023-04-26T19:53:13.426Z,2.65
2023-04-26T19:55:41.454Z,2.72
2023-04-26T19:58:08.364Z,3.20
2023-04-26T20:00:39.804Z,3.05
2023-04-26T20:03:06.975Z,3.20
2023-04-26T20:05:34.037Z,3.13
2023-04-26T20:08:01.030Z,2.78
2023-04-26T20:10:31.612Z,3.20
2023-04-26T20:12:59.268Z,2.95
2023-04-26T20:15:26.324Z,3.20
2023-04-26T20:17:52.934Z,3.17
2023-04-26T20:20:19.694Z,3.05
2023-04-26T20:22:46.248Z,3.55
2023-04-26T20:25:13.039Z,3.22
2023-04-26T20:27:39.597Z,3.03
2023-04-26T20:30:07.234Z,3.05
2023-04-26T20:32:33.811Z,3.40
2023-04-26T20:35:00.344Z,3.08
2023-04-26T20:37:26.835Z,2.60
2023-04-26T20:39:53.334Z,2.60
2023-04-26T20:42:19.930Z,3.00
2023-04-26T20:44:46.479Z,3.10
2023-04-26T20:47:13.187Z,2.60
2023-04-26T20:49:39.692Z,3.10
2023-04-26T20:52:06.372Z,2.85
2023-04-26T20:54:33.376Z,2.85
2023-04-26T20:56:59.937Z,3.47
2023-04-26T20:59:26.771Z,2.95
2023-04-26T21:01:53.830Z,2.67
2023-04-26T21:04:21.571Z,3.15
2023-04-26T21:06:48.456Z,3.20
2023-04-26T21:09:15.226Z,2.92
2023-04-26T21:11:42.472Z,3.17
2023-04-26T21:14:09.360Z,2.90
2023-04-26T21:16:36.868Z,2.72
2023-04-26T21:19:03.635Z,2.75
2023-04-26T21:21:30.779Z,2.63
2023-04-26T21:23:57.333Z,2.85
2023-04-26T21:26:23.852Z,2.92
2023-04-26T21:28:50.484Z,2.90
2023-04-26T21:31:17.010Z,2.80
2023-04-26T21:33:43.629Z,2.92
2023-04-26T21:36:10.212Z,2.40
2023-04-26T21:38:36.722Z,2.80
2023-04-26T21:41:09.268Z,3.22
2023-04-26T21:43:35.868Z,2.72
2023-04-26T21:46:03.336Z,2.70
2023-04-26T21:48:31.985Z,2.42
2023-04-26T21:50:58.573Z,3.03
2023-04-26T21:53:27.222Z,2.83
2023-04-26T21:55:54.473Z,2.60
2023-04-26T21:58:21.637Z,3.03
2023-04-26T22:00:48.966Z,2.58
2023-04-26T22:03:16.318Z,2.80
2023-04-26T22:05:43.205Z,2.90
2023-04-26T22:08:09.731Z,3.30
2023-04-26T22:10:36.443Z,3.08
2023-04-26T22:13:03.282Z,2.92
2023-04-26T22:15:29.953Z,2.95
2023-04-26T22:17:56.613Z,2.60
2023-04-26T22:20:23.433Z,2.83
2023-04-26T22:22:50.013Z,3.05
2023-04-26T22:25:16.571Z,2.67
2023-04-26T22:27:43.047Z,2.17
2023-04-26T22:30:24.096Z,3.03
2023-04-26T22:32:54.970Z,2.55
2023-04-26T22:35:35.560Z,2.80
2023-04-26T22:38:02.245Z,2.83
2023-04-26T22:40:28.721Z,2.75
2023-04-26T22:42:55.260Z,3.20
2023-04-26T22:45:22.758Z,3.00
2023-04-26T22:47:49.416Z,2.90
2023-04-26T22:50:22.873Z,2.75
2023-04-26T22:52:49.991Z,3.15
2023-04-26T22:55:17.337Z,3.08
2023-04-26T22:57:43.934Z,2.85
2023-04-26T23:00:12.484Z,2.75
2023-04-26T23:02:39.261Z,3.00
2023-04-26T23:05:09.635Z,2.72
2023-04-26T23:07:37.512Z,3.03
2023-04-26T23:10:05.099Z,2.90
2023-04-26T23:12:31.816Z,2.97
2023-04-26T23:14:59.052Z,2.85
2023-04-26T23:17:29.044Z,2.80
2023-04-26T23:19:56.437Z,3.10
2023-04-26T23:22:22.926Z,2.88
2023-04-26T23:24:49.452Z,2.97
2023-04-26T23:27:16.040Z,2.80
2023-04-26T23:29:42.568Z,2.60
2023-04-26T23:32:09.022Z,2.75
2023-04-26T23:34:35.598Z,2.88
2023-04-26T23:37:07.213Z,2.83
